createdAt,value
2018-07-08T00:02:03.989Z,53.20
2018-07-08T00:04:30.523Z,52.80
2018-07-08T00:06:57.977Z,53.10
2018-07-08T00:09:24.539Z,53.20
2018-07-08T00:11:51.000Z,53.50
2018-07-08T00:14:17.574Z,53.70
2018-07-08T00:16:44.054Z,53.70
2018-07-08T00:19:10.552Z,53.60
2018-07-08T00:21:37.000Z,53.50
2018-07-08T00:24:03.442Z,52.90
2018-07-08T00:26:29.965Z,53.10
2018-07-08T00:28:56.420Z,53.50
2018-07-08T00:31:23.520Z,53.70
2018-07-08T00:33:49.985Z,53.00
2018-07-08T00:36:16.422Z,53.60
2018-07-08T00:38:42.941Z,53.80
2018-07-08T00:41:09.422Z,53.70
2018-07-08T00:43:35.908Z,53.40
2018-07-08T00:46:02.356Z,53.50
2018-07-08T00:48:28.930Z,53.30
2018-07-08T00:50:55.424Z,53.20
2018-07-08T00:53:21.906Z,53.60
2018-07-08T00:55:50.270Z,53.70
2018-07-08T00:58:16.835Z,53.50
2018-07-08T01:00:43.348Z,53.60
2018-07-08T01:05:36.892Z,53.50
2018-07-08T01:08:03.997Z,53.20
2018-07-08T01:10:30.458Z,53.40
2018-07-08T01:12:57.076Z,53.50
2018-07-08T01:15:24.196Z,53.90
2018-07-08T01:17:50.770Z,53.50
2018-07-08T01:20:17.237Z,53.40
2018-07-08T01:22:43.954Z,53.30
2018-07-08T01:25:11.900Z,53.10
2018-07-08T01:27:38.712Z,52.90
2018-07-08T01:30:05.226Z,52.90
2018-07-08T01:32:31.896Z,53.30
2018-07-08T01:34:58.368Z,53.00
2018-07-08T01:37:24.850Z,52.80
2018-07-08T01:39:51.312Z,52.80
2018-07-08T01:42:17.817Z,52.80
2018-07-08T01:44:44.269Z,52.90
2018-07-08T01:47:10.752Z,53.70
2018-07-08T01:49:37.376Z,53.50
2018-07-08T01:52:03.842Z,53.20
2018-07-08T01:54:30.290Z,53.20
2018-07-08T01:56:56.731Z,53.20
2018-07-08T01:59:23.189Z,53.30
2018-07-08T02:01:49.642Z,53.20
2018-07-08T02:04:16.140Z,53.20
2018-07-08T02:06:42.637Z,53.30
2018-07-08T02:09:09.091Z,53.20
2018-07-08T02:11:35.557Z,53.30
2018-07-08T02:14:02.036Z,53.10
2018-07-08T02:16:28.590Z,53.00
2018-07-08T02:18:55.097Z,53.10
2018-07-08T02:23:48.521Z,53.10
2018-07-08T02:26:14.986Z,53.10
2018-07-08T02:28:41.435Z,53.10
2018-07-08T02:31:08.140Z,53.10
2018-07-08T02:33:34.641Z,53.20
2018-07-08T02:36:01.101Z,53.20
2018-07-08T02:38:27.588Z,53.40
2018-07-08T02:40:54.069Z,52.90
2018-07-08T02:43:20.599Z,52.70
2018-07-08T02:45:47.733Z,52.80
2018-07-08T02:48:14.202Z,52.70
2018-07-08T02:50:40.741Z,52.70
2018-07-08T02:53:07.215Z,52.70
2018-07-08T02:55:34.408Z,53.30
2018-07-08T02:58:00.903Z,52.70
2018-07-08T03:00:27.371Z,52.80
2018-07-08T03:02:53.820Z,52.90
2018-07-08T03:05:20.976Z,52.80
2018-07-08T03:07:47.556Z,52.80
2018-07-08T03:10:13.987Z,52.90
2018-07-08T03:12:40.480Z,52.80
2018-07-08T03:15:07.067Z,52.70
2018-07-08T03:17:33.625Z,52.70
2018-07-08T03:20:06.016Z,52.80
2018-07-08T03:22:32.474Z,52.70
2018-07-08T03:24:58.936Z,52.70
2018-07-08T03:27:25.559Z,52.60
2018-07-08T03:29:52.017Z,52.70
2018-07-08T03:32:18.575Z,52.70
2018-07-08T03:34:45.597Z,52.70
2018-07-08T03:37:12.087Z,52.80
2018-07-08T03:39:38.546Z,52.70
2018-07-08T03:42:05.043Z,52.60
2018-07-08T03:44:31.507Z,52.60
2018-07-08T03:46:58.101Z,52.70
2018-07-08T03:49:24.566Z,52.70
2018-07-08T03:51:50.988Z,52.70
2018-07-08T03:54:17.427Z,52.70
2018-07-08T03:56:43.918Z,52.70
2018-07-08T03:59:10.389Z,52.70
2018-07-08T04:01:36.857Z,52.70
2018-07-08T04:04:03.374Z,52.60
2018-07-08T04:06:29.861Z,52.70
2018-07-08T04:08:56.327Z,52.60
2018-07-08T04:11:22.822Z,52.60
2018-07-08T04:13:49.326Z,52.70
2018-07-08T04:16:16.294Z,52.70
2018-07-08T04:18:42.778Z,52.60
2018-07-08T04:21:09.266Z,52.70
2018-07-08T04:23:35.757Z,52.80
2018-07-08T04:26:02.209Z,52.70
2018-07-08T04:28:28.695Z,52.60
2018-07-08T04:30:55.197Z,52.90
2018-07-08T04:33:21.653Z,52.90
2018-07-08T04:35:48.494Z,52.90
2018-07-08T04:38:15.140Z,53.20
2018-07-08T04:40:41.610Z,53.20
2018-07-08T04:43:08.118Z,53.00
2018-07-08T04:45:34.590Z,53.10
2018-07-08T04:48:01.177Z,53.20
2018-07-08T04:50:27.634Z,53.00
2018-07-08T04:52:54.104Z,53.20
2018-07-08T04:55:21.186Z,53.30
2018-07-08T04:57:47.623Z,53.10
2018-07-08T05:00:14.056Z,53.10
2018-07-08T05:02:40.531Z,52.60
2018-07-08T05:05:07.014Z,52.70
2018-07-08T05:07:33.489Z,53.20
2018-07-08T05:09:59.950Z,53.20
2018-07-08T05:12:26.771Z,53.20
2018-07-08T05:14:53.238Z,53.10
2018-07-08T05:17:19.695Z,53.20
2018-07-08T05:19:46.202Z,53.40
2018-07-08T05:22:12.754Z,53.40
2018-07-08T05:24:39.250Z,53.50
2018-07-08T05:27:05.720Z,53.60
2018-07-08T05:29:32.239Z,53.60
2018-07-08T05:31:58.668Z,53.80
2018-07-08T05:34:25.156Z,53.90
2018-07-08T05:36:51.612Z,53.80
2018-07-08T05:39:18.130Z,53.90
2018-07-08T05:41:44.726Z,53.90
2018-07-08T05:44:11.196Z,53.80
2018-07-08T05:46:37.682Z,53.80
2018-07-08T05:49:04.183Z,53.80
2018-07-08T05:51:30.672Z,53.70
2018-07-08T05:53:57.182Z,54.00
2018-07-08T05:56:24.199Z,53.70
2018-07-08T05:58:50.683Z,53.70
2018-07-08T06:01:17.268Z,53.80
2018-07-08T06:03:43.782Z,53.50
2018-07-08T06:06:10.238Z,53.50
2018-07-08T06:08:36.698Z,53.40
2018-07-08T06:11:03.192Z,53.50
2018-07-08T06:13:29.688Z,53.30
2018-07-08T06:15:56.189Z,53.30
2018-07-08T06:18:22.650Z,53.20
2018-07-08T06:20:49.230Z,53.00
2018-07-08T06:23:15.705Z,53.20
2018-07-08T06:25:42.240Z,53.50
2018-07-08T06:28:08.726Z,53.80
2018-07-08T06:30:35.206Z,53.70
2018-07-08T06:33:01.745Z,54.10
2018-07-08T06:35:28.202Z,54.20
2018-07-08T06:37:54.634Z,54.50
2018-07-08T06:40:21.073Z,54.40
2018-07-08T06:42:47.537Z,54.80
2018-07-08T06:45:14.122Z,54.70
2018-07-08T06:47:40.615Z,55.00
2018-07-08T06:50:07.055Z,55.10
2018-07-08T06:52:33.545Z,55.30
2018-07-08T06:55:00.018Z,55.60
2018-07-08T06:57:26.481Z,55.80
2018-07-08T06:59:52.962Z,55.80
2018-07-08T07:02:19.437Z,55.50
2018-07-08T07:04:45.948Z,55.20
2018-07-08T07:07:12.429Z,55.20
2018-07-08T07:09:38.930Z,54.70
2018-07-08T07:12:05.406Z,54.50
2018-07-08T07:14:31.895Z,54.30
2018-07-08T07:16:58.337Z,53.80
2018-07-08T07:19:24.803Z,53.60
2018-07-08T07:24:18.393Z,52.40
2018-07-08T07:26:44.812Z,52.40
2018-07-08T07:29:11.268Z,51.70
2018-07-08T07:31:37.743Z,51.80
2018-07-08T07:34:04.211Z,51.40
2018-07-08T07:36:30.706Z,51.30
2018-07-08T07:38:57.169Z,50.70
2018-07-08T07:41:23.635Z,51.20
2018-07-08T07:43:50.195Z,51.10
2018-07-08T07:46:16.681Z,51.10
2018-07-08T07:48:43.153Z,51.00
2018-07-08T07:51:10.298Z,50.80
2018-07-08T07:53:36.798Z,50.70
2018-07-08T07:56:03.247Z,50.20
2018-07-08T07:58:29.720Z,50.30
2018-07-08T08:00:56.173Z,49.70
2018-07-08T08:03:22.619Z,50.00
2018-07-08T08:05:49.124Z,49.20
2018-07-08T08:08:15.590Z,49.10
2018-07-08T08:10:42.064Z,48.90
2018-07-08T08:13:08.690Z,48.90
2018-07-08T08:15:35.224Z,48.90
2018-07-08T08:18:01.704Z,49.00
2018-07-08T08:20:28.290Z,48.90
2018-07-08T08:22:54.939Z,49.10
2018-07-08T08:25:21.401Z,49.20
2018-07-08T08:27:47.918Z,49.20
2018-07-08T08:30:14.393Z,49.20
2018-07-08T08:32:40.893Z,49.20
2018-07-08T08:35:22.157Z,49.40
2018-07-08T08:37:51.914Z,49.40
2018-07-08T08:40:19.573Z,49.40
2018-07-08T08:42:46.082Z,49.40
2018-07-08T08:45:14.720Z,49.40
2018-07-08T08:47:41.459Z,49.70
2018-07-08T08:50:08.007Z,49.70
2018-07-08T08:52:34.603Z,49.70
2018-07-08T08:55:01.151Z,49.70
2018-07-08T08:57:27.738Z,49.70
2018-07-08T08:59:54.529Z,50.10
2018-07-08T09:04:48.132Z,49.90
2018-07-08T09:07:15.979Z,50.00
2018-07-08T09:09:42.491Z,50.00
2018-07-08T09:12:09.571Z,50.00
2018-07-08T09:14:36.623Z,50.10
2018-07-08T09:17:03.107Z,50.20
2018-07-08T09:19:29.603Z,50.20
2018-07-08T09:21:56.085Z,50.80
2018-07-08T09:24:22.815Z,50.20
2018-07-08T09:26:49.276Z,50.20
2018-07-08T09:29:15.811Z,50.20
2018-07-08T09:31:42.295Z,50.30
2018-07-08T09:34:08.879Z,50.30
2018-07-08T09:36:35.822Z,50.30
2018-07-08T09:39:03.720Z,50.40
2018-07-08T09:41:30.138Z,50.40
2018-07-08T09:43:56.799Z,50.50
2018-07-08T09:46:23.300Z,50.40
2018-07-08T09:48:49.786Z,50.60
2018-07-08T09:51:16.276Z,50.40
2018-07-08T09:53:42.774Z,50.50
2018-07-08T09:56:09.244Z,50.50
2018-07-08T09:58:35.732Z,50.60
2018-07-08T10:01:02.787Z,50.60
2018-07-08T10:03:30.854Z,50.70
2018-07-08T10:05:57.847Z,50.70
2018-07-08T10:08:24.354Z,50.60
2018-07-08T10:10:51.143Z,50.70
2018-07-08T10:13:17.642Z,50.70
2018-07-08T10:15:45.058Z,50.70
2018-07-08T10:18:11.560Z,50.70
2018-07-08T10:20:38.060Z,50.60
2018-07-08T10:23:04.573Z,50.60
2018-07-08T10:25:31.043Z,50.60
2018-07-08T10:27:58.918Z,50.60
2018-07-08T10:30:25.437Z,50.60
2018-07-08T10:32:51.874Z,50.60
2018-07-08T10:35:18.566Z,50.60
2018-07-08T10:37:45.052Z,50.70
2018-07-08T10:40:11.550Z,50.60
2018-07-08T10:42:38.041Z,50.60
2018-07-08T10:45:04.537Z,50.60
2018-07-08T10:47:31.027Z,50.50
2018-07-08T10:50:02.975Z,50.60
2018-07-08T10:52:29.452Z,50.50
2018-07-08T10:54:55.944Z,50.50
2018-07-08T10:57:22.406Z,50.50
2018-07-08T10:59:48.900Z,50.40
2018-07-08T11:02:15.398Z,50.50
2018-07-08T11:04:41.932Z,51.00
2018-07-08T11:07:09.086Z,50.40
2018-07-08T11:09:35.561Z,50.50
2018-07-08T11:12:02.109Z,50.40
2018-07-08T11:14:28.579Z,50.40
2018-07-08T11:16:55.045Z,50.40
2018-07-08T11:19:21.514Z,50.40
2018-07-08T11:21:48.034Z,51.00
2018-07-08T11:24:14.493Z,50.40
2018-07-08T11:26:41.058Z,50.40
2018-07-08T11:29:07.539Z,50.30
2018-07-08T11:31:34.021Z,50.90
2018-07-08T11:34:00.563Z,50.20
2018-07-08T11:36:27.085Z,50.40
2018-07-08T11:38:53.565Z,50.20
2018-07-08T11:41:20.048Z,50.30
2018-07-08T11:43:46.560Z,50.30
2018-07-08T11:46:13.603Z,50.30
2018-07-08T11:48:40.093Z,50.30
2018-07-08T11:51:06.533Z,50.20
2018-07-08T11:53:33.019Z,50.20
2018-07-08T11:55:59.639Z,50.30
2018-07-08T11:58:26.187Z,50.20
2018-07-08T12:00:52.657Z,50.20
2018-07-08T12:03:19.147Z,50.20
2018-07-08T12:05:45.702Z,50.20
2018-07-08T12:08:12.176Z,50.20
2018-07-08T12:10:39.138Z,50.20
2018-07-08T12:13:06.052Z,50.30
2018-07-08T12:15:33.205Z,50.30
2018-07-08T12:17:59.697Z,50.30
2018-07-08T12:20:26.157Z,50.30
2018-07-08T12:22:52.617Z,49.90
2018-07-08T12:25:19.117Z,50.30
2018-07-08T12:27:45.778Z,50.30
2018-07-08T12:30:12.100Z,50.30
2018-07-08T12:32:38.533Z,50.30
2018-07-08T12:35:05.004Z,50.30
2018-07-08T12:37:31.521Z,50.30
2018-07-08T12:39:57.990Z,50.30
2018-07-08T12:42:24.464Z,50.30
2018-07-08T12:44:50.978Z,50.30
2018-07-08T12:47:17.419Z,50.30
2018-07-08T12:49:43.921Z,50.30
2018-07-08T12:52:10.375Z,50.30
2018-07-08T12:54:36.819Z,50.30
2018-07-08T12:57:03.299Z,50.30
2018-07-08T12:59:29.787Z,50.30
2018-07-08T13:01:56.270Z,50.30
2018-07-08T13:04:22.738Z,50.30
2018-07-08T13:06:49.208Z,50.30
2018-07-08T13:09:15.723Z,50.40
2018-07-08T13:11:42.198Z,50.40
2018-07-08T13:14:08.684Z,50.40
2018-07-08T13:16:35.160Z,50.30
2018-07-08T13:19:01.660Z,50.30
2018-07-08T13:21:28.137Z,50.30
2018-07-08T13:23:54.796Z,50.40
2018-07-08T13:26:21.409Z,50.30
2018-07-08T13:28:47.889Z,50.30
2018-07-08T13:31:14.413Z,50.30
2018-07-08T13:33:40.900Z,50.40
2018-07-08T13:36:08.019Z,50.30
2018-07-08T13:38:34.482Z,50.40
2018-07-08T13:41:00.934Z,50.40
2018-07-08T13:43:27.478Z,50.40
2018-07-08T13:45:54.028Z,50.40
2018-07-08T13:48:20.490Z,50.50
2018-07-08T13:50:46.976Z,50.60
2018-07-08T13:53:13.488Z,50.60
2018-07-08T13:55:39.991Z,50.60
2018-07-08T13:58:06.492Z,50.60
2018-07-08T14:00:32.949Z,50.70
2018-07-08T14:02:59.468Z,50.70
2018-07-08T14:05:26.423Z,50.70
2018-07-08T14:07:52.890Z,50.70
2018-07-08T14:10:19.389Z,50.70
2018-07-08T14:12:45.870Z,50.70
2018-07-08T14:15:12.318Z,50.60
2018-07-08T14:17:38.808Z,50.50
2018-07-08T14:20:05.701Z,50.60
2018-07-08T14:22:32.848Z,50.60
2018-07-08T14:24:59.447Z,50.70
2018-07-08T14:27:25.916Z,50.70
2018-07-08T14:29:52.360Z,50.70
2018-07-08T14:32:18.862Z,50.70
2018-07-08T14:34:45.360Z,50.60
2018-07-08T14:37:11.840Z,50.60
2018-07-08T14:39:38.333Z,50.60
2018-07-08T14:42:04.840Z,50.60
2018-07-08T14:46:58.943Z,50.70
2018-07-08T14:49:25.476Z,50.70
2018-07-08T14:51:52.005Z,50.70
2018-07-08T14:54:18.525Z,50.70
2018-07-08T14:56:45.032Z,50.70
2018-07-08T15:01:38.553Z,50.70
2018-07-08T15:04:05.089Z,51.00
2018-07-08T15:06:31.573Z,50.70
2018-07-08T15:08:58.741Z,50.70
2018-07-08T15:11:25.360Z,50.70
2018-07-08T15:13:51.840Z,50.70
2018-07-08T15:16:18.860Z,50.70
2018-07-08T15:18:45.692Z,50.70
2018-07-08T15:21:12.212Z,50.70
2018-07-08T15:23:38.634Z,50.70
2018-07-08T15:26:05.169Z,50.80
2018-07-08T15:28:31.668Z,50.70
2018-07-08T15:30:58.173Z,50.70
2018-07-08T15:33:24.683Z,50.80
2018-07-08T15:35:51.166Z,50.80
2018-07-08T15:38:17.638Z,50.80
2018-07-08T15:40:44.196Z,50.80
2018-07-08T15:43:10.728Z,50.80
2018-07-08T15:45:39.038Z,50.80
2018-07-08T15:48:05.901Z,50.90
2018-07-08T15:50:33.601Z,50.90
2018-07-08T15:53:00.090Z,50.90
2018-07-08T15:55:26.600Z,50.90
2018-07-08T15:57:53.130Z,51.00
2018-07-08T16:00:19.771Z,51.00
2018-07-08T16:02:46.725Z,51.00
2018-07-08T16:05:13.223Z,50.90
2018-07-08T16:07:39.821Z,51.00
2018-07-08T16:10:07.182Z,50.90
2018-07-08T16:12:33.662Z,51.00
2018-07-08T16:15:00.158Z,51.00
2018-07-08T16:17:26.644Z,50.90
2018-07-08T16:19:53.147Z,50.90
2018-07-08T16:22:19.695Z,51.00
2018-07-08T16:24:46.249Z,51.10
2018-07-08T16:27:12.749Z,51.00
2018-07-08T16:29:39.373Z,51.00
2018-07-08T16:32:06.563Z,51.00
2018-07-08T16:34:33.123Z,51.00
2018-07-08T16:36:59.603Z,51.00
2018-07-08T16:39:26.801Z,51.00
2018-07-08T16:41:53.371Z,51.00
2018-07-08T16:44:19.863Z,51.10
2018-07-08T16:46:46.327Z,51.70
2018-07-08T16:49:12.823Z,51.10
2018-07-08T16:51:39.371Z,51.10
2018-07-08T16:54:05.977Z,51.10
2018-07-08T16:56:32.497Z,51.10
2018-07-08T16:58:59.051Z,51.10
2018-07-08T17:01:25.538Z,51.20
2018-07-08T17:03:52.115Z,51.10
2018-07-08T17:06:18.739Z,51.10
2018-07-08T17:08:45.211Z,51.10
2018-07-08T17:11:11.647Z,51.10
2018-07-08T17:13:38.113Z,51.10
2018-07-08T17:16:04.638Z,51.10
2018-07-08T17:18:31.116Z,51.10
2018-07-08T17:20:57.583Z,51.10
2018-07-08T17:23:24.145Z,51.10
2018-07-08T17:25:51.107Z,51.00
2018-07-08T17:28:17.592Z,51.00
2018-07-08T17:30:44.067Z,51.10
2018-07-08T17:33:10.615Z,51.10
2018-07-08T17:35:37.723Z,51.20
2018-07-08T17:38:04.709Z,51.30
2018-07-08T17:40:31.199Z,51.90
2018-07-08T17:42:57.702Z,52.10
2018-07-08T17:45:24.205Z,52.50
2018-07-08T17:47:50.707Z,52.80
2018-07-08T17:50:17.149Z,53.20
2018-07-08T17:52:43.975Z,53.30
2018-07-08T17:55:14.173Z,53.30
2018-07-08T17:57:41.305Z,53.90
2018-07-08T18:00:07.894Z,53.80
2018-07-08T18:02:34.449Z,54.00
2018-07-08T18:05:00.979Z,54.00
2018-07-08T18:07:27.470Z,54.30
2018-07-08T18:09:53.968Z,55.30
2018-07-08T18:12:20.466Z,54.60
2018-07-08T18:14:46.897Z,55.20
2018-07-08T18:17:13.352Z,55.60
2018-07-08T18:19:39.914Z,55.40
2018-07-08T18:22:06.421Z,55.90
2018-07-08T18:24:32.912Z,56.20
2018-07-08T18:26:59.395Z,56.00
2018-07-08T18:29:25.876Z,56.20
2018-07-08T18:31:52.347Z,56.20
2018-07-08T18:34:18.916Z,56.50
2018-07-08T18:36:46.050Z,56.70
2018-07-08T18:39:12.530Z,56.80
2018-07-08T18:41:39.660Z,56.80
2018-07-08T18:44:06.164Z,57.00
2018-07-08T18:46:32.927Z,57.00
2018-07-08T18:48:59.384Z,57.20
2018-07-08T18:51:25.879Z,57.00
2018-07-08T18:53:52.528Z,57.50
2018-07-08T18:56:19.111Z,57.40
2018-07-08T18:58:45.671Z,57.30
2018-07-08T19:01:12.216Z,57.20
2018-07-08T19:03:38.796Z,57.00
2018-07-08T19:06:05.335Z,57.10
2018-07-08T19:08:31.831Z,57.20
2018-07-08T19:10:58.287Z,57.00
2018-07-08T19:13:25.347Z,57.10
2018-07-08T19:15:52.739Z,57.00
2018-07-08T19:18:19.209Z,57.00
2018-07-08T19:20:45.724Z,57.60
2018-07-08T19:23:12.287Z,56.80
2018-07-08T19:25:38.783Z,56.70
2018-07-08T19:28:05.279Z,56.60
2018-07-08T19:30:31.725Z,56.70
2018-07-08T19:32:58.215Z,56.50
2018-07-08T19:35:25.012Z,56.50
2018-07-08T19:37:51.499Z,56.40
2018-07-08T19:40:18.055Z,56.40
2018-07-08T19:42:44.547Z,56.30
2018-07-08T19:45:11.068Z,56.10
2018-07-08T19:47:37.571Z,56.00
2018-07-08T19:50:04.030Z,55.80
2018-07-08T19:52:30.532Z,55.60
2018-07-08T19:54:57.006Z,55.50
2018-07-08T19:57:23.493Z,55.40
2018-07-08T19:59:50.101Z,55.50
2018-07-08T20:02:16.575Z,55.30
2018-07-08T20:04:43.039Z,55.30
2018-07-08T20:07:10.132Z,55.30
2018-07-08T20:09:36.656Z,55.70
2018-07-08T20:12:03.299Z,55.20
2018-07-08T20:14:30.768Z,55.10
2018-07-08T20:16:57.353Z,55.20
2018-07-08T20:19:23.856Z,55.30
2018-07-08T20:21:50.427Z,55.40
2018-07-08T20:24:16.962Z,55.40
2018-07-08T20:26:43.543Z,55.40
2018-07-08T20:29:10.078Z,55.40
2018-07-08T20:31:36.550Z,55.40
2018-07-08T20:34:03.337Z,55.40
2018-07-08T20:36:29.867Z,55.40
2018-07-08T20:38:56.349Z,55.70
2018-07-08T20:41:23.500Z,55.50
2018-07-08T20:43:50.044Z,55.40
2018-07-08T20:46:16.519Z,55.70
2018-07-08T20:48:42.973Z,55.80
2018-07-08T20:51:09.543Z,55.50
2018-07-08T20:53:42.122Z,55.60
2018-07-08T20:56:08.785Z,55.60
2018-07-08T20:58:35.420Z,55.70
2018-07-08T21:01:01.955Z,55.70
2018-07-08T21:03:28.820Z,55.70
2018-07-08T21:05:55.360Z,56.90
2018-07-08T21:08:22.398Z,56.90
2018-07-08T21:10:48.952Z,56.50
2018-07-08T21:13:15.491Z,57.10
2018-07-08T21:15:42.003Z,56.60
2018-07-08T21:18:08.524Z,56.70
2018-07-08T21:20:35.070Z,56.70
2018-07-08T21:23:01.618Z,56.80
2018-07-08T21:25:28.173Z,56.80
2018-07-08T21:27:54.695Z,56.80
2018-07-08T21:30:22.049Z,56.80
2018-07-08T21:32:48.552Z,56.90
2018-07-08T21:35:15.037Z,56.80
2018-07-08T21:37:41.538Z,56.90
2018-07-08T21:40:08.004Z,56.60
2018-07-08T21:42:34.641Z,56.60
2018-07-08T21:47:28.146Z,57.10
2018-07-08T21:49:54.621Z,56.90
2018-07-08T21:52:21.100Z,56.70
2018-07-08T21:54:47.572Z,56.70
2018-07-08T21:57:14.087Z,56.70
2018-07-08T21:59:40.657Z,56.60
2018-07-08T22:02:07.154Z,56.50
2018-07-08T22:07:06.192Z,56.40
2018-07-08T22:09:32.900Z,56.40
2018-07-08T22:11:59.532Z,56.40
2018-07-08T22:14:26.246Z,56.20
2018-07-08T22:16:52.788Z,56.10
2018-07-08T22:19:19.342Z,56.00
2018-07-08T22:21:46.036Z,56.00
2018-07-08T22:24:12.642Z,56.00
2018-07-08T22:26:39.090Z,55.90
2018-07-08T22:29:05.776Z,55.80
2018-07-08T22:31:32.464Z,55.80
2018-07-08T22:33:59.154Z,55.70
2018-07-08T22:36:25.621Z,55.60
2018-07-08T22:38:53.064Z,55.60
2018-07-08T22:41:19.670Z,55.60
2018-07-08T22:43:46.182Z,55.40
2018-07-08T22:46:12.719Z,55.40
2018-07-08T22:48:40.099Z,55.40
2018-07-08T22:51:06.643Z,55.60
2018-07-08T22:53:33.258Z,55.40
2018-07-08T22:55:59.733Z,55.40
2018-07-08T22:58:26.191Z,55.30
2018-07-08T23:00:52.701Z,55.40
2018-07-08T23:03:19.173Z,55.20
2018-07-08T23:05:45.690Z,55.20
2018-07-08T23:08:12.211Z,55.20
2018-07-08T23:10:38.684Z,55.10
2018-07-08T23:13:05.145Z,55.00
2018-07-08T23:15:32.625Z,55.10
2018-07-08T23:17:59.085Z,55.10
2018-07-08T23:20:25.568Z,54.90
2018-07-08T23:27:45.949Z,55.00
2018-07-08T23:30:12.489Z,54.90
2018-07-08T23:32:38.979Z,55.10
2018-07-08T23:35:05.485Z,54.90
2018-07-08T23:37:31.979Z,54.80
2018-07-08T23:39:58.593Z,54.80
2018-07-08T23:42:25.090Z,54.90
2018-07-08T23:44:51.691Z,55.10
2018-07-08T23:47:18.325Z,55.40
2018-07-08T23:49:44.813Z,56.20
2018-07-08T23:52:14.330Z,55.90
2018-07-08T23:54:40.813Z,56.20
2018-07-08T23:57:07.342Z,56.60
2018-07-08T23:59:33.802Z,56.70
